Time;durP1;ratioP1;P1;durP2;ratioP2;P2;SDS_P1;SDS_P2;PMS_P1;PMS_P2;Temp;Humidity;BMP_temperature;BMP_pressure;BME280_temperature;BME280_humidity;BME280_pressure;Samples;Min_cycle;Max_cycle;Signal;HPM_P1;HPM_P2
2023/03/24 00:01:55;;;;;;;14.68;3.70;;;6.60;99.90;;;;;;4849803;29;20743;-63
2023/03/24 00:04:23;;;;;;;13.43;4.78;;;6.60;99.90;;;;;;4847737;29;20056;-64
2023/03/24 00:06:51;;;;;;;9.40;4.38;;;6.60;99.90;;;;;;4845571;29;20508;-72
2023/03/24 00:09:18;;;;;;;12.68;3.60;;;6.60;99.90;;;;;;4852983;29;20888;-67
2023/03/24 00:11:45;;;;;;;19.17;3.40;;;6.60;99.90;;;;;;4846001;29;20052;-64
2023/03/24 00:14:12;;;;;;;19.35;4.07;;;6.70;99.90;;;;;;4847465;29;20660;-66
2023/03/24 00:16:44;;;;;;;16.65;4.38;;;6.60;99.90;;;;;;4842731;29;20145;-64
2023/03/24 00:19:14;;;;;;;14.45;5.22;;;6.60;99.90;;;;;;4846940;29;20045;-67
2023/03/24 00:21:42;;;;;;;12.10;4.68;;;6.60;99.90;;;;;;4846134;29;20041;-70
2023/03/24 00:24:11;;;;;;;7.38;3.55;;;6.60;99.90;;;;;;4848365;29;20053;-70
2023/03/24 00:26:40;;;;;;;18.40;6.30;;;6.60;99.90;;;;;;4848298;29;20102;-65
2023/03/24 00:29:10;;;;;;;17.00;3.45;;;6.60;99.90;;;;;;4844810;29;20059;-71
2023/03/24 00:31:38;;;;;;;12.65;4.88;;;6.60;99.90;;;;;;4840068;29;20046;-66
2023/03/24 00:34:07;;;;;;;11.57;3.85;;;6.60;99.90;;;;;;4861709;29;20674;-66
2023/03/24 00:36:36;;;;;;;9.85;4.65;;;6.60;99.90;;;;;;4839041;29;20090;-64
2023/03/24 00:39:05;;;;;;;15.88;5.38;;;6.60;99.90;;;;;;4844523;29;20516;-70
2023/03/24 00:41:32;;;;;;;17.73;3.90;;;6.60;99.90;;;;;;4845840;29;20075;-65
2023/03/24 00:44:02;;;;;;;12.23;3.38;;;6.60;99.90;;;;;;4846030;29;20089;-69
2023/03/24 00:46:29;;;;;;;17.08;4.18;;;6.60;99.90;;;;;;4845273;29;20102;-67
2023/03/24 00:49:00;;;;;;;20.30;3.58;;;6.50;99.90;;;;;;4865080;29;20053;-66
2023/03/24 00:51:37;;;;;;;15.82;4.53;;;6.50;99.90;;;;;;4847457;29;20045;-68
2023/03/24 00:54:06;;;;;;;12.05;4.43;;;6.50;99.90;;;;;;4854693;29;20112;-64
2023/03/24 00:56:34;;;;;;;9.88;3.50;;;6.50;99.90;;;;;;4838795;29;20062;-66
2023/03/24 00:59:02;;;;;;;12.98;4.07;;;6.40;99.90;;;;;;4841262;29;20049;-64
2023/03/24 01:01:33;;;;;;;22.20;4.65;;;6.50;99.90;;;;;;4845433;29;20448;-64
2023/03/24 01:04:01;;;;;;;14.85;3.75;;;6.40;99.90;;;;;;4853929;29;20049;-72
2023/03/24 01:06:29;;;;;;;17.02;4.70;;;6.40;99.90;;;;;;4852272;29;20063;-73
2023/03/24 01:08:56;;;;;;;10.30;3.95;;;6.30;99.90;;;;;;4871119;29;20053;-68
2023/03/24 01:11:25;;;;;;;8.50;3.78;;;6.30;99.90;;;;;;4851432;29;20063;-65
2023/03/24 01:13:53;;;;;;;10.00;4.18;;;6.30;99.90;;;;;;4848513;29;20054;-71
2023/03/24 01:16:24;;;;;;;8.35;3.28;;;6.30;99.90;;;;;;4863703;29;20037;-68
2023/03/24 01:18:51;;;;;;;13.30;4.43;;;6.30;99.90;;;;;;4848369;29;20045;-69
2023/03/24 01:21:18;;;;;;;11.48;3.58;;;6.20;99.90;;;;;;4864029;29;20055;-67
2023/03/24 01:23:46;;;;;;;17.30;3.60;;;6.20;99.90;;;;;;4853616;29;20050;-74
2023/03/24 01:26:13;;;;;;;10.35;3.10;;;6.20;99.90;;;;;;4847734;29;20050;-71
2023/03/24 01:28:42;;;;;;;21.17;5.15;;;6.10;99.90;;;;;;4848215;29;20137;-70
2023/03/24 01:31:10;;;;;;;17.17;5.00;;;6.00;99.90;;;;;;4855705;29;20619;-70
2023/03/24 01:33:38;;;;;;;14.98;3.65;;;6.00;99.90;;;;;;4849618;29;20041;-71
2023/03/24 01:36:06;;;;;;;12.60;3.22;;;5.90;99.90;;;;;;4849244;29;20054;-69
2023/03/24 01:38:33;;;;;;;13.02;3.72;;;5.70;99.90;;;;;;4851071;29;20057;-69
2023/03/24 01:41:00;;;;;;;19.27;3.55;;;5.60;99.90;;;;;;4859920;29;20639;-66
2023/03/24 01:43:32;;;;;;;11.10;3.35;;;5.50;99.90;;;;;;4847636;29;20141;-67
2023/03/24 01:46:11;;;;;;;9.15;3.10;;;5.40;99.90;;;;;;4844605;29;20114;-68
2023/03/24 01:48:43;;;;;;;11.40;4.85;;;5.40;99.90;;;;;;4849828;29;20106;-71
2023/03/24 01:51:30;;;;;;;17.92;4.20;;;5.30;99.90;;;;;;4845776;29;20061;-72
2023/03/24 01:53:59;;;;;;;11.73;3.35;;;5.30;99.90;;;;;;4853828;29;20113;-70
2023/03/24 01:56:28;;;;;;;15.55;3.45;;;5.20;99.90;;;;;;4852398;29;20056;-71
2023/03/24 01:59:01;;;;;;;17.35;3.35;;;5.20;99.90;;;;;;4849896;29;20046;-68
2023/03/24 02:01:38;;;;;;;15.50;4.65;;;5.20;99.90;;;;;;4848090;29;20049;-72
2023/03/24 02:04:43;;;;;;;14.07;3.97;;;5.10;99.90;;;;;;4852878;29;20133;-65
2023/03/24 02:07:15;;;;;;;11.68;3.22;;;5.10;99.90;;;;;;4847522;29;20061;-71
2023/03/24 02:09:42;;;;;;;11.27;4.90;;;5.10;99.90;;;;;;4850035;29;20049;-66
2023/03/24 02:12:09;;;;;;;18.50;3.33;;;5.10;99.90;;;;;;4849004;29;20105;-70
2023/03/24 02:14:36;;;;;;;15.32;3.38;;;5.10;99.90;;;;;;4850197;29;20537;-66
2023/03/24 02:17:22;;;;;;;10.88;4.05;;;5.00;99.90;;;;;;4843400;29;20405;-65
2023/03/24 02:20:30;;;;;;;15.50;5.20;;;5.10;99.90;;;;;;4860752;29;20050;-73
2023/03/24 02:23:29;;;;;;;14.18;3.42;;;5.10;99.90;;;;;;4850354;29;20056;-70
2023/03/24 02:25:59;;;;;;;14.40;3.55;;;5.20;99.90;;;;;;4862347;29;20085;-65
2023/03/24 02:28:47;;;;;;;13.70;3.65;;;5.20;99.90;;;;;;4848257;29;20102;-63
2023/03/24 02:31:34;;;;;;;14.70;2.90;;;5.10;99.90;;;;;;4849652;29;20312;-67
2023/03/24 02:34:13;;;;;;;17.60;5.22;;;5.10;99.90;;;;;;4846663;29;21046;-71
2023/03/24 02:36:43;;;;;;;9.63;3.88;;;5.10;99.90;;;;;;4851472;29;20148;-66
2023/03/24 02:39:45;;;;;;;18.55;4.90;;;5.10;99.90;;;;;;4849939;29;20049;-64
2023/03/24 02:42:24;;;;;;;9.93;4.40;;;5.10;99.90;;;;;;4864945;29;20074;-69
2023/03/24 02:45:11;;;;;;;16.63;4.10;;;5.10;99.90;;;;;;4842088;29;20050;-69
2023/03/24 02:47:44;;;;;;;17.45;4.90;;;5.00;99.90;;;;;;4850147;29;20718;-70
2023/03/24 02:50:24;;;;;;;24.73;5.78;;;5.10;99.90;;;;;;4848839;29;20100;-66
2023/03/24 02:53:07;;;;;;;10.10;4.72;;;5.10;99.90;;;;;;4845740;29;20459;-71
2023/03/24 02:55:52;;;;;;;15.27;3.60;;;5.20;99.90;;;;;;4846746;29;20054;-66
2023/03/24 02:58:30;;;;;;;21.27;4.05;;;5.20;99.90;;;;;;4862987;29;20045;-66
2023/03/24 03:01:13;;;;;;;18.23;3.78;;;5.20;99.90;;;;;;4844489;29;20058;-67
2023/03/24 03:04:31;;;;;;;14.15;4.32;;;5.20;99.90;;;;;;4844653;29;20053;-70
2023/03/24 03:07:08;;;;;;;19.40;4.70;;;5.20;99.90;;;;;;4859553;29;22547;-67
2023/03/24 03:09:40;;;;;;;13.90;4.20;;;5.10;99.90;;;;;;4846976;29;20134;-66
2023/03/24 03:12:10;;;;;;;23.77;3.97;;;5.10;99.90;;;;;;4844924;29;20509;-74
2023/03/24 03:14:49;;;;;;;11.23;4.40;;;5.10;99.90;;;;;;4848178;29;20085;-64
2023/03/24 03:17:24;;;;;;;18.50;3.15;;;5.10;99.90;;;;;;4861248;29;20041;-68
2023/03/24 03:20:01;;;;;;;9.23;5.43;;;5.10;99.90;;;;;;4846016;29;20064;-66
2023/03/24 03:22:37;;;;;;;16.08;4.38;;;5.00;99.90;;;;;;4849889;29;20057;-67
2023/03/24 03:25:05;;;;;;;11.85;3.33;;;5.00;99.90;;;;;;4846483;29;20495;-73
2023/03/24 03:27:39;;;;;;;12.65;4.05;;;5.00;99.90;;;;;;4847509;29;20046;-64
2023/03/24 03:30:12;;;;;;;18.13;5.07;;;5.00;99.90;;;;;;4844374;29;20056;-70
2023/03/24 03:32:52;;;;;;;17.27;4.95;;;5.00;99.90;;;;;;4841032;29;20093;-66
2023/03/24 03:35:21;;;;;;;;;;;5.00;99.90;;;;;;4842723;29;20049;-73
2023/03/24 03:38:16;;;;;;;18.25;4.40;;;5.00;99.90;;;;;;4843254;29;19930;-71
2023/03/24 03:40:51;;;;;;;13.20;5.43;;;5.00;99.90;;;;;;4844599;29;20078;-66
2023/03/24 03:43:24;;;;;;;12.70;4.22;;;5.00;99.90;;;;;;4864940;29;20173;-69
2023/03/24 03:45:51;;;;;;;23.30;6.28;;;5.00;99.90;;;;;;4852470;29;20061;-67
2023/03/24 03:48:25;;;;;;;16.20;3.47;;;5.10;99.90;;;;;;4849023;29;20049;-68
2023/03/24 03:50:54;;;;;;;11.55;4.30;;;5.10;99.90;;;;;;4848131;29;20150;-66
2023/03/24 03:53:51;;;;;;;11.32;3.25;;;5.00;99.90;;;;;;4860450;29;20250;-66
2023/03/24 03:56:21;;;;;;;23.45;6.97;;;5.00;99.90;;;;;;4863083;29;20158;-66
2023/03/24 03:59:00;;;;;;;12.93;4.00;;;5.00;99.90;;;;;;4844636;29;20997;-64
2023/03/24 04:01:29;;;;;;;15.00;4.18;;;5.00;99.90;;;;;;4865692;29;20525;-69
2023/03/24 04:04:19;;;;;;;14.20;3.42;;;5.00;99.90;;;;;;4853326;29;20060;-69
2023/03/24 04:07:19;;;;;;;17.75;3.53;;;5.00;99.90;;;;;;4847423;29;20045;-64
2023/03/24 04:10:19;;;;;;;19.45;3.90;;;5.00;99.90;;;;;;4843678;29;20076;-67
2023/03/24 04:13:24;;;;;;;17.98;4.22;;;5.00;99.90;;;;;;4844988;29;20503;-63
2023/03/24 04:16:40;;;;;;;22.42;5.03;;;4.90;99.90;;;;;;4862084;29;20060;-66
2023/03/24 04:19:19;;;;;;;10.85;3.65;;;4.90;99.90;;;;;;4865411;29;20433;-64
2023/03/24 04:22:03;;;;;;;12.63;3.88;;;4.90;99.90;;;;;;4861574;29;20056;-65
2023/03/24 04:24:34;;;;;;;26.17;4.85;;;4.90;99.90;;;;;;4863744;29;20053;-69
2023/03/24 04:27:13;;;;;;;19.02;4.60;;;4.90;99.90;;;;;;4850036;29;20137;-68
2023/03/24 04:30:13;;;;;;;20.15;3.95;;;4.90;99.90;;;;;;4847828;29;20171;-63
2023/03/24 04:33:04;;;;;;;16.77;3.67;;;4.90;99.90;;;;;;4858090;29;20057;-69
2023/03/24 04:35:43;;;;;;;18.35;3.78;;;4.90;99.90;;;;;;4844608;29;20065;-63
2023/03/24 04:38:37;;;;;;;11.10;3.03;;;4.90;99.90;;;;;;4866686;29;20601;-70
2023/03/24 04:41:16;;;;;;;11.50;3.65;;;4.90;99.90;;;;;;4849372;29;20048;-64
2023/03/24 04:43:49;;;;;;;14.95;3.42;;;4.90;99.90;;;;;;4851101;29;20048;-74
2023/03/24 04:46:17;;;;;;;11.30;3.33;;;4.80;99.90;;;;;;4851228;29;20053;-66
2023/03/24 04:48:51;;;;;;;17.05;3.53;;;4.80;99.90;;;;;;4844442;29;20058;-74
2023/03/24 04:51:35;;;;;;;13.88;3.70;;;4.80;99.90;;;;;;4860660;29;20052;-67
2023/03/24 04:54:05;;;;;;;17.45;4.47;;;4.70;99.90;;;;;;4845528;29;20045;-68
2023/03/24 04:56:44;;;;;;;12.52;4.05;;;4.70;99.90;;;;;;4852204;29;20411;-65
2023/03/24 04:59:18;;;;;;;20.83;4.60;;;4.60;99.90;;;;;;4850024;29;20129;-69
2023/03/24 05:01:48;;;;;;;11.13;3.33;;;4.60;99.90;;;;;;4854630;29;20049;-73
2023/03/24 05:04:37;;;;;;;21.98;5.10;;;4.60;99.90;;;;;;4869278;29;20503;-65
2023/03/24 05:07:14;;;;;;;26.45;5.65;;;4.60;99.90;;;;;;4864658;29;20540;-75
2023/03/24 05:09:42;;;;;;;19.08;5.38;;;4.60;99.90;;;;;;4864976;29;20053;-68
2023/03/24 05:12:09;;;;;;;19.83;5.45;;;4.50;99.90;;;;;;4853782;29;20050;-67
2023/03/24 05:14:55;;;;;;;9.48;3.40;;;4.50;99.90;;;;;;4854563;29;20057;-68
2023/03/24 05:17:22;;;;;;;16.67;4.70;;;4.50;99.90;;;;;;4850114;29;20042;-63
2023/03/24 05:19:49;;;;;;;17.85;5.53;;;4.50;99.90;;;;;;4852763;29;20042;-65
2023/03/24 05:22:16;;;;;;;19.52;4.32;;;4.50;99.90;;;;;;4850380;29;20838;-63
2023/03/24 05:24:43;;;;;;;24.98;6.25;;;4.50;99.90;;;;;;4855403;29;20455;-64
2023/03/24 05:27:10;;;;;;;15.68;4.43;;;4.50;99.90;;;;;;4854856;29;20064;-64
2023/03/24 05:29:36;;;;;;;15.48;4.47;;;4.50;99.90;;;;;;4851352;29;20079;-67
2023/03/24 05:32:04;;;;;;;25.65;6.30;;;4.50;99.90;;;;;;4875588;29;20049;-69
2023/03/24 05:34:31;;;;;;;16.58;5.53;;;4.50;99.90;;;;;;4852897;29;20045;-64
2023/03/24 05:37:10;;;;;;;18.52;6.45;;;4.60;99.90;;;;;;4867333;29;20041;-72
2023/03/24 05:39:38;;;;;;;12.57;3.58;;;4.60;99.90;;;;;;4854594;29;20409;-64
2023/03/24 05:42:08;;;;;;;20.27;4.05;;;4.70;99.90;;;;;;4867859;29;20064;-66
2023/03/24 05:44:35;;;;;;;12.15;3.78;;;4.70;99.90;;;;;;4869008;29;20072;-69
2023/03/24 05:47:09;;;;;;;23.60;4.68;;;4.80;99.90;;;;;;4852562;29;20388;-65
2023/03/24 05:49:36;;;;;;;15.98;4.57;;;4.80;99.90;;;;;;4851336;29;20061;-66
2023/03/24 05:52:04;;;;;;;30.17;7.10;;;4.90;99.90;;;;;;4854583;29;20110;-66
2023/03/24 05:54:32;;;;;;;27.20;5.53;;;5.00;99.90;;;;;;4852791;29;20041;-69
2023/03/24 05:57:15;;;;;;;18.52;4.68;;;5.00;99.90;;;;;;4853156;29;20067;-66
2023/03/24 06:00:15;;;;;;;25.90;5.57;;;5.10;99.90;;;;;;4844949;29;20463;-64
2023/03/24 06:02:50;;;;;;;19.15;6.10;;;5.20;99.90;;;;;;4852286;29;20053;-68
2023/03/24 06:05:27;;;;;;;27.23;5.40;;;5.30;99.90;;;;;;4852007;29;20056;-67
2023/03/24 06:08:03;;;;;;;25.60;6.88;;;5.30;99.90;;;;;;4843739;29;20046;-64
2023/03/24 06:10:35;;;;;;;19.85;6.05;;;5.30;99.90;;;;;;4852978;29;20113;-64
2023/03/24 06:13:03;;;;;;;15.60;7.05;;;5.40;99.90;;;;;;4849315;29;20120;-64
2023/03/24 06:15:32;;;;;;;24.05;4.78;;;5.40;99.90;;;;;;4851748;29;20124;-67
2023/03/24 06:18:20;;;;;;;27.60;7.75;;;5.40;99.90;;;;;;4845036;29;20046;-67
2023/03/24 06:20:49;;;;;;;23.75;5.40;;;5.40;99.90;;;;;;4842651;29;20042;-67
2023/03/24 06:23:22;;;;;;;18.85;6.93;;;5.50;99.90;;;;;;4847802;29;20532;-64
2023/03/24 06:26:11;;;;;;;20.73;8.30;;;5.50;99.90;;;;;;4848058;29;20065;-69
2023/03/24 06:28:58;;;;;;;35.08;7.30;;;5.60;99.90;;;;;;4846270;29;20054;-71
2023/03/24 06:31:31;;;;;;;25.58;6.85;;;5.70;99.90;;;;;;4844723;29;20140;-66
2023/03/24 06:33:58;;;;;;;16.25;5.95;;;5.80;99.90;;;;;;4850423;29;20049;-75
2023/03/24 06:36:25;;;;;;;20.08;5.57;;;5.90;99.90;;;;;;4849226;29;20054;-67
2023/03/24 06:38:52;;;;;;;28.00;6.00;;;5.90;99.90;;;;;;4860701;29;20138;-72
2023/03/24 06:41:20;;;;;;;21.15;6.57;;;6.00;99.90;;;;;;4848515;29;20148;-73
2023/03/24 06:43:52;;;;;;;18.42;4.93;;;6.10;99.90;;;;;;4847662;29;20060;-71
2023/03/24 06:46:19;;;;;;;20.45;6.15;;;6.20;99.90;;;;;;4848730;29;20057;-66
2023/03/24 06:48:48;;;;;;;22.45;6.35;;;6.20;99.90;;;;;;4850174;29;20501;-68
2023/03/24 06:51:15;;;;;;;17.92;4.47;;;6.30;99.90;;;;;;4866268;29;20060;-64
2023/03/24 06:53:44;;;;;;;17.15;5.70;;;6.40;99.90;;;;;;4848228;29;20049;-64
2023/03/24 06:56:17;;;;;;;17.00;5.05;;;6.50;99.90;;;;;;4860285;29;20068;-66
2023/03/24 06:58:50;;;;;;;23.75;5.55;;;6.60;99.90;;;;;;4845123;29;20096;-68
2023/03/24 07:01:26;;;;;;;18.40;6.80;;;6.60;99.90;;;;;;4866175;29;20496;-69
2023/03/24 07:03:56;;;;;;;28.38;5.82;;;6.70;99.90;;;;;;4847121;29;20058;-67
2023/03/24 07:06:41;;;;;;;22.00;5.78;;;6.80;99.90;;;;;;4838079;29;20049;-68
2023/03/24 07:09:29;;;;;;;20.50;7.15;;;6.90;99.90;;;;;;4841433;29;20062;-72
2023/03/24 07:11:57;;;;;;;28.35;5.80;;;7.00;99.90;;;;;;4865308;29;20077;-66
2023/03/24 07:14:25;;;;;;;18.40;6.35;;;7.10;99.90;;;;;;4844893;29;20081;-67
2023/03/24 07:16:53;;;;;;;20.38;6.15;;;7.20;99.90;;;;;;4847211;29;20057;-66
2023/03/24 07:19:38;;;;;;;27.15;6.47;;;7.30;99.90;;;;;;4846862;29;20056;-65
2023/03/24 07:22:23;;;;;;;24.63;6.90;;;7.40;99.90;;;;;;4846791;29;20853;-64
2023/03/24 07:25:13;;;;;;;21.70;7.38;;;7.60;99.90;;;;;;4823432;29;20049;-66
2023/03/24 07:27:47;;;;;;;23.00;5.75;;;7.70;99.90;;;;;;4847078;29;20484;-67
2023/03/24 07:30:15;;;;;;;16.92;3.88;;;7.80;99.90;;;;;;4847103;29;20045;-67
2023/03/24 07:32:45;;;;;;;24.25;6.35;;;7.90;99.90;;;;;;4852933;29;20050;-67
2023/03/24 07:35:12;;;;;;;21.20;5.45;;;8.00;99.90;;;;;;4844919;29;20128;-70
2023/03/24 07:37:39;;;;;;;18.50;6.30;;;8.10;99.90;;;;;;4845763;29;20623;-69
2023/03/24 07:40:10;;;;;;;21.20;6.07;;;8.20;99.90;;;;;;4850677;29;20426;-71
2023/03/24 07:42:38;;;;;;;23.10;4.97;;;8.30;99.90;;;;;;4847712;29;20137;-69
2023/03/24 07:45:31;;;;;;;27.17;4.57;;;8.40;99.90;;;;;;4841630;29;20049;-66
2023/03/24 07:48:00;;;;;;;18.00;6.13;;;8.40;99.90;;;;;;4864824;29;20075;-65
2023/03/24 07:50:30;;;;;;;23.83;7.40;;;8.50;99.90;;;;;;4848911;29;20045;-68
2023/03/24 07:52:58;;;;;;;21.10;5.53;;;8.50;99.90;;;;;;4855945;29;20552;-67
2023/03/24 07:55:26;;;;;;;26.77;8.65;;;8.50;99.90;;;;;;4843785;29;20046;-64
2023/03/24 07:57:57;;;;;;;25.10;8.23;;;8.30;99.90;;;;;;4847986;29;20137;-70
2023/03/24 08:00:28;;;;;;;22.65;7.95;;;8.20;99.90;;;;;;4842002;29;20054;-64
2023/03/24 08:03:26;;;;;;;20.05;6.38;;;8.10;99.90;;;;;;4851289;29;20049;-71
2023/03/24 08:06:12;;;;;;;17.35;7.07;;;8.10;99.90;;;;;;4843367;29;20076;-72
2023/03/24 08:08:43;;;;;;;16.20;6.63;;;8.00;99.90;;;;;;4846704;29;20445;-64
2023/03/24 08:11:10;;;;;;;14.10;6.03;;;8.10;99.90;;;;;;4845739;29;20053;-67
2023/03/24 08:13:37;;;;;;;27.40;6.22;;;8.00;99.90;;;;;;4846918;29;20060;-72
2023/03/24 08:16:04;;;;;;;23.15;7.07;;;8.10;99.90;;;;;;4847550;29;20093;-67
2023/03/24 08:18:33;;;;;;;17.42;6.50;;;8.20;99.90;;;;;;4849840;29;20073;-63
2023/03/24 08:21:01;;;;;;;17.67;6.93;;;8.20;99.90;;;;;;4842072;29;20185;-72
2023/03/24 08:23:28;;;;;;;14.93;6.13;;;8.30;99.90;;;;;;4845304;29;20041;-70
2023/03/24 08:25:55;;;;;;;12.57;5.78;;;8.30;99.90;;;;;;4845603;29;20579;-74
2023/03/24 08:28:22;;;;;;;17.00;6.78;;;8.30;99.90;;;;;;4848594;29;20045;-67
2023/03/24 08:30:49;;;;;;;18.90;7.82;;;8.40;99.90;;;;;;4844520;29;20050;-62
2023/03/24 08:33:16;;;;;;;15.98;8.07;;;8.40;99.90;;;;;;4847242;29;20386;-67
2023/03/24 08:35:46;;;;;;;21.80;8.35;;;8.50;99.90;;;;;;4840488;29;20524;-66
2023/03/24 08:38:15;;;;;;;;;;;8.50;99.90;;;;;;4847937;29;20148;-76
2023/03/24 08:40:44;;;;;;;12.18;6.28;;;8.60;99.90;;;;;;4841177;29;19932;-69
2023/03/24 08:43:14;;;;;;;14.65;7.07;;;8.60;99.90;;;;;;4843129;29;20124;-65
2023/03/24 08:45:41;;;;;;;;;;;8.60;99.90;;;;;;4849723;29;20445;-66
2023/03/24 08:48:08;;;;;;;14.52;6.78;;;8.70;99.90;;;;;;4845901;29;19920;-73
2023/03/24 08:50:38;;;;;;;10.85;7.15;;;8.70;99.90;;;;;;4844393;29;20106;-72
2023/03/24 08:53:06;;;;;;;17.58;6.10;;;8.80;99.90;;;;;;4845998;29;20057;-70
2023/03/24 08:55:33;;;;;;;10.77;6.60;;;8.80;99.90;;;;;;4848360;29;20645;-73
2023/03/24 08:58:00;;;;;;;10.20;6.38;;;8.80;99.90;;;;;;4845904;29;20049;-68
2023/03/24 09:00:27;;;;;;;10.13;6.68;;;8.90;99.90;;;;;;4849529;29;20920;-67
2023/03/24 09:02:55;;;;;;;10.32;6.03;;;8.90;99.90;;;;;;4846400;29;20070;-67
2023/03/24 09:05:24;;;;;;;9.60;5.10;;;9.00;99.90;;;;;;4846890;29;20140;-68
2023/03/24 09:08:11;;;;;;;12.50;4.80;;;9.00;99.90;;;;;;4843382;29;20057;-72
2023/03/24 09:10:39;;;;;;;6.95;5.13;;;9.10;99.90;;;;;;4838510;29;20149;-66
2023/03/24 09:13:06;;;;;;;5.40;4.60;;;9.20;99.90;;;;;;4846087;29;20395;-68
2023/03/24 09:15:34;;;;;;;17.15;5.85;;;9.30;99.90;;;;;;4843590;29;20072;-73
2023/03/24 09:18:02;;;;;;;8.95;4.97;;;9.40;99.90;;;;;;4845893;29;20149;-72
2023/03/24 09:20:29;;;;;;;9.38;4.93;;;9.50;99.90;;;;;;4849253;29;20073;-69
2023/03/24 09:22:56;;;;;;;11.82;5.25;;;9.60;99.90;;;;;;4838807;29;20442;-65
2023/03/24 09:25:23;;;;;;;8.10;5.28;;;9.60;99.90;;;;;;4850129;29;20053;-73
2023/03/24 09:27:50;;;;;;;8.75;4.60;;;9.60;99.90;;;;;;4847364;29;20068;-76
2023/03/24 09:30:17;;;;;;;14.40;6.57;;;9.70;99.90;;;;;;4845621;29;20419;-67
2023/03/24 09:32:45;;;;;;;10.90;7.65;;;9.70;99.90;;;;;;4848716;29;20038;-66
2023/03/24 09:35:13;;;;;;;12.27;6.60;;;9.70;99.90;;;;;;4847545;29;20065;-69
2023/03/24 09:37:41;;;;;;;9.18;6.85;;;9.60;99.90;;;;;;4847767;29;20181;-67
2023/03/24 09:40:20;;;;;;;13.63;6.60;;;9.60;99.90;;;;;;4843055;29;20063;-71
2023/03/24 09:42:56;;;;;;;14.00;8.70;;;9.70;99.90;;;;;;4847260;29;20064;-69
2023/03/24 09:45:25;;;;;;;11.32;8.10;;;9.70;99.90;;;;;;4848743;29;20054;-68
2023/03/24 09:48:00;;;;;;;13.85;9.55;;;9.70;99.90;;;;;;4849578;29;20045;-69
2023/03/24 09:50:34;;;;;;;13.40;10.05;;;9.70;99.90;;;;;;4845782;29;20181;-72
2023/03/24 09:53:22;;;;;;;17.80;10.23;;;9.60;99.90;;;;;;4845136;29;20495;-66
2023/03/24 09:55:49;;;;;;;20.08;10.82;;;9.70;99.90;;;;;;4850155;29;20044;-68
2023/03/24 09:58:17;;;;;;;14.95;11.57;;;9.60;99.90;;;;;;4847054;29;20046;-68
2023/03/24 10:00:45;;;;;;;15.40;12.30;;;9.50;99.90;;;;;;4846604;29;20049;-69
2023/03/24 10:03:21;;;;;;;14.73;12.90;;;9.50;99.90;;;;;;4847823;29;20109;-71
2023/03/24 10:06:03;;;;;;;18.00;11.98;;;9.50;99.90;;;;;;4864743;29;20049;-67
2023/03/24 10:08:40;;;;;;;;;;;9.50;99.90;;;;;;4844625;29;20136;-65
2023/03/24 10:11:10;;;;;;;23.77;14.00;;;9.50;99.90;;;;;;4845794;29;19927;-73
2023/03/24 10:14:14;;;;;;;16.58;12.75;;;9.50;99.90;;;;;;4849974;29;20038;-75
2023/03/24 10:17:19;;;;;;;18.27;13.15;;;9.50;99.90;;;;;;4848550;29;20613;-68
2023/03/24 10:19:49;;;;;;;21.25;14.73;;;9.60;99.90;;;;;;4843602;29;20054;-65
2023/03/24 10:22:24;;;;;;;17.75;13.63;;;9.60;99.90;;;;;;4847302;29;20128;-67
2023/03/24 10:25:18;;;;;;;19.58;14.00;;;9.70;99.90;;;;;;4846750;29;20072;-66
2023/03/24 10:28:00;;;;;;;17.25;12.85;;;9.80;99.90;;;;;;4848150;29;20504;-66
2023/03/24 10:30:41;;;;;;;16.52;13.93;;;9.80;99.90;;;;;;4850617;29;20048;-68
2023/03/24 10:33:12;;;;;;;16.95;12.60;;;9.80;99.90;;;;;;4847556;29;20041;-71
2023/03/24 10:35:53;;;;;;;17.92;13.40;;;9.80;99.90;;;;;;4845439;29;20053;-73
2023/03/24 10:38:21;;;;;;;21.15;14.35;;;9.90;99.90;;;;;;4848880;29;20126;-66
2023/03/24 10:40:49;;;;;;;16.13;12.45;;;9.90;99.90;;;;;;4848169;29;20604;-68
2023/03/24 10:43:17;;;;;;;14.18;12.15;;;9.90;99.90;;;;;;4850305;29;20105;-66
2023/03/24 10:45:48;;;;;;;20.88;13.50;;;9.80;99.90;;;;;;4849833;29;20045;-70
2023/03/24 10:48:40;;;;;;;20.95;16.50;;;10.00;99.90;;;;;;4848227;29;20404;-68
2023/03/24 10:51:16;;;;;;;15.68;12.30;;;10.00;99.90;;;;;;4842936;29;20445;-71
2023/03/24 10:53:48;;;;;;;18.15;13.57;;;10.00;99.90;;;;;;4850655;29;20045;-69
2023/03/24 10:56:35;;;;;;;17.77;12.65;;;10.00;99.90;;;;;;4841197;29;20449;-66
2023/03/24 10:59:05;;;;;;;22.08;15.18;;;10.10;99.90;;;;;;4842400;29;20429;-66
2023/03/24 11:01:34;;;;;;;18.58;11.30;;;10.30;99.90;;;;;;4847944;29;20534;-65
2023/03/24 11:04:06;;;;;;;17.10;12.10;;;10.50;99.90;;;;;;4844014;29;20053;-70
2023/03/24 11:06:33;;;;;;;11.43;10.23;;;10.50;99.90;;;;;;4849371;29;20085;-64
2023/03/24 11:09:09;;;;;;;15.02;11.40;;;10.70;99.90;;;;;;4843550;29;20049;-69
2023/03/24 11:11:36;;;;;;;13.85;10.25;;;10.90;99.90;;;;;;4850436;29;20049;-68
2023/03/24 11:14:03;;;;;;;11.55;10.45;;;10.90;99.90;;;;;;4845267;29;20045;-70
2023/03/24 11:16:42;;;;;;;14.13;10.10;;;11.00;99.90;;;;;;4848196;29;20073;-64
2023/03/24 11:19:17;;;;;;;13.07;9.43;;;11.00;99.90;;;;;;4846507;29;20470;-69
2023/03/24 11:21:49;;;;;;;15.23;9.32;;;11.10;99.90;;;;;;4847434;29;20053;-68
2023/03/24 11:24:19;;;;;;;9.95;8.95;;;11.00;99.90;;;;;;4844570;29;20051;-64
2023/03/24 11:26:51;;;;;;;12.70;9.98;;;10.90;99.90;;;;;;4846235;29;20054;-66
2023/03/24 11:29:20;;;;;;;12.50;9.02;;;10.90;99.90;;;;;;4845427;29;20567;-66
2023/03/24 11:32:04;;;;;;;9.60;8.47;;;10.80;99.90;;;;;;4843282;29;20193;-69
2023/03/24 11:34:41;;;;;;;12.98;8.95;;;10.70;99.90;;;;;;4847483;29;20281;-73
2023/03/24 11:37:16;;;;;;;11.88;7.57;;;10.60;99.90;;;;;;4845238;29;20397;-67
2023/03/24 11:39:43;;;;;;;11.65;8.48;;;10.60;99.90;;;;;;4846464;29;20045;-66
2023/03/24 11:42:10;;;;;;;9.68;8.13;;;10.60;99.90;;;;;;4845851;29;20077;-74
2023/03/24 11:44:37;;;;;;;9.40;8.00;;;10.70;99.90;;;;;;4844176;29;20049;-75
2023/03/24 11:47:27;;;;;;;11.63;8.93;;;10.70;99.90;;;;;;4848205;29;20049;-72
2023/03/24 11:50:31;;;;;;;15.40;8.88;;;10.70;99.90;;;;;;4848403;29;20092;-68
2023/03/24 11:53:26;;;;;;;11.77;8.70;;;10.80;99.90;;;;;;4838830;29;20914;-70
2023/03/24 11:56:06;;;;;;;10.23;7.50;;;10.70;99.90;;;;;;4846388;29;20132;-67
2023/03/24 11:58:46;;;;;;;12.45;8.82;;;10.60;99.90;;;;;;4850761;29;20056;-65
2023/03/24 12:01:26;;;;;;;10.90;8.52;;;10.70;99.90;;;;;;4842471;29;20053;-65
2023/03/24 12:04:04;;;;;;;11.27;8.43;;;10.70;99.90;;;;;;4849965;29;20046;-74
2023/03/24 12:07:00;;;;;;;10.05;8.13;;;10.60;99.90;;;;;;4846539;29;20060;-69
2023/03/24 12:09:37;;;;;;;11.40;8.77;;;10.60;99.90;;;;;;4848305;29;20050;-71
2023/03/24 12:12:24;;;;;;;9.98;7.57;;;10.50;99.90;;;;;;4847884;29;20137;-66
2023/03/24 12:14:54;;;;;;;10.85;8.68;;;10.40;99.90;;;;;;4847720;29;20050;-71
2023/03/24 12:17:36;;;;;;;8.70;7.80;;;10.30;99.90;;;;;;4853636;29;20052;-67
2023/03/24 12:20:34;;;;;;;9.57;8.52;;;10.20;99.90;;;;;;4851981;29;20056;-64
2023/03/24 12:23:19;;;;;;;14.88;9.38;;;10.20;99.90;;;;;;4846381;29;20049;-72
2023/03/24 12:25:52;;;;;;;10.18;8.75;;;10.10;99.90;;;;;;4854417;29;20041;-67
2023/03/24 12:28:30;;;;;;;8.55;6.90;;;10.00;99.90;;;;;;4845293;29;20065;-68
2023/03/24 12:31:44;;;;;;;7.47;6.75;;;10.00;99.90;;;;;;4846461;29;20110;-73
2023/03/24 12:34:38;;;;;;;11.02;6.57;;;9.80;99.90;;;;;;4825489;29;20458;-67
2023/03/24 12:37:13;;;;;;;9.40;6.97;;;9.70;99.90;;;;;;4846592;29;20106;-68
2023/03/24 12:40:11;;;;;;;11.02;7.38;;;9.60;99.90;;;;;;4847707;29;20046;-63
2023/03/24 12:42:41;;;;;;;7.80;6.68;;;9.60;99.90;;;;;;4847480;29;20121;-70
2023/03/24 12:45:26;;;;;;;7.25;6.57;;;9.50;99.90;;;;;;4842651;29;20052;-69
2023/03/24 12:48:25;;;;;;;7.40;6.22;;;9.40;99.90;;;;;;4849023;29;20073;-66
2023/03/24 12:51:17;;;;;;;5.22;4.03;;;9.40;99.90;;;;;;4844334;29;20053;-67
2023/03/24 12:53:57;;;;;;;5.47;4.55;;;9.30;99.90;;;;;;4846652;29;20046;-71
2023/03/24 12:56:34;;;;;;;5.60;4.15;;;9.20;99.90;;;;;;4843265;29;20046;-72
2023/03/24 12:59:11;;;;;;;6.40;4.43;;;9.10;99.90;;;;;;4843700;29;20467;-68
2023/03/24 13:01:50;;;;;;;5.25;4.65;;;9.10;99.90;;;;;;4851241;29;20052;-63
2023/03/24 13:04:20;;;;;;;6.10;5.30;;;9.00;99.90;;;;;;4846546;29;21983;-71
2023/03/24 13:07:10;;;;;;;5.83;5.23;;;9.00;99.90;;;;;;4849574;29;20057;-62
2023/03/24 13:09:58;;;;;;;;;;;9.00;99.90;;;;;;4847029;29;20695;-66
2023/03/24 13:12:47;;;;;;;7.50;6.80;;;9.00;99.90;;;;;;4846281;29;20385;-64
2023/03/24 13:15:44;;;;;;;9.50;6.85;;;8.90;99.90;;;;;;4846312;29;20691;-66
2023/03/24 13:18:10;;;;;;;8.93;5.60;;;8.80;99.90;;;;;;4848514;29;20132;-69
2023/03/24 13:20:48;;;;;;;6.03;5.45;;;8.80;99.90;;;;;;4850881;29;20059;-62
2023/03/24 13:23:36;;;;;;;6.78;6.07;;;8.80;99.90;;;;;;4844972;29;20578;-66
2023/03/24 13:26:19;;;;;;;5.68;5.18;;;8.80;99.90;;;;;;4846353;29;20492;-71
2023/03/24 13:29:02;;;;;;;6.05;5.55;;;8.70;99.90;;;;;;4841330;29;20062;-68
2023/03/24 13:31:38;;;;;;;5.25;4.45;;;8.60;99.90;;;;;;4851992;29;20178;-65